Time;durP1;ratioP1;P1;durP2;ratioP2;P2;SDS_P1;SDS_P2;PMS_P1;PMS_P2;Temp;Humidity;BMP_temperature;BMP_pressure;BME280_temperature;BME280_humidity;BME280_pressure;Samples;Min_cycle;Max_cycle;Signal;HPM_P1;HPM_P2
2022/03/03 00:00:52;;;;;;;17.50;12.60;;;;;;100875.92;;;;107094;1276;64743;-42
2022/03/03 00:03:19;;;;;;;15.90;12.00;;;;;;100873.33;;;;107037;1278;66179;-43
2022/03/03 00:05:46;;;;;;;16.40;12.10;;;;;;100865.92;;;;107078;1277;64992;-43
2022/03/03 00:08:13;;;;;;;15.80;12.60;;;;;;100859.20;;;;107054;1277;64992;-43
2022/03/03 00:10:40;;;;;;;16.90;12.60;;;;;;100855.56;;;;107053;1276;64762;-32
2022/03/03 00:13:08;;;;;;;20.00;13.10;;;;;;100856.29;;;;107095;1276;65643;-32
2022/03/03 00:15:35;;;;;;;16.20;13.00;;;;;;100854.73;;;;107081;1276;65951;-43
2022/03/03 00:18:03;;;;;;;17.40;13.10;;;;;;100850.77;;;;107092;1276;64779;-44
2022/03/03 00:20:30;;;;;;;17.40;13.40;;;;;;100845.79;;;;107131;1278;64876;-32
2022/03/03 00:22:57;;;;;;;18.40;13.20;;;;;;100840.73;;;;107057;1276;64881;-32
2022/03/03 00:25:25;;;;;;;16.90;12.70;;;;;;100836.90;;;;107093;1277;64757;-43
2022/03/03 00:27:52;;;;;;;17.90;13.30;;;;;;100831.45;;;;107077;1277;65255;-42
2022/03/03 00:30:19;;;;;;;16.90;12.80;;;;;;100823.62;;;;107082;1276;64728;-44
2022/03/03 00:32:46;;;;;;;16.30;12.30;;;;;;100818.31;;;;107092;1277;64819;-43
2022/03/03 00:35:13;;;;;;;16.40;12.70;;;;;;100821.08;;;;107088;1277;64818;-33
2022/03/03 00:37:41;;;;;;;17.90;13.60;;;;;;100822.16;;;;107086;1276;64959;-37
2022/03/03 00:40:10;;;;;;;16.50;12.60;;;;;;100819.83;;;;107088;1276;65242;-33
2022/03/03 00:42:38;;;;;;;17.70;12.80;;;;;;100816.28;;;;106922;1279;64833;-37
2022/03/03 00:45:07;;;;;;;17.80;13.50;;;;;;100813.98;;;;107057;1277;64900;-34
2022/03/03 00:47:34;;;;;;;17.40;13.50;;;;;;100815.73;;;;107001;1278;64793;-31
2022/03/03 00:50:03;;;;;;;17.80;13.90;;;;;;100817.73;;;;107017;1277;64892;-32
2022/03/03 00:52:30;;;;;;;17.80;14.00;;;;;;100814.00;;;;107070;1276;64913;-33
2022/03/03 00:54:57;;;;;;;18.20;13.90;;;;;;100814.14;;;;107015;1277;64819;-43
2022/03/03 00:57:24;;;;;;;18.00;13.10;;;;;;100809.56;;;;107031;1277;65007;-47
2022/03/03 00:59:52;;;;;;;17.40;13.10;;;;;;100812.65;;;;107090;1277;64825;-34
2022/03/03 01:02:19;;;;;;;18.30;12.90;;;;;;100809.08;;;;107082;1276;64848;-32
2022/03/03 01:04:47;;;;;;;18.60;14.10;;;;;;100806.59;;;;107090;1276;64979;-31
2022/03/03 01:07:15;;;;;;;16.50;13.50;;;;;;100802.27;;;;107091;1277;64737;-44
2022/03/03 01:09:42;;;;;;;18.40;13.60;;;;;;100800.58;;;;107045;1277;64979;-44
2022/03/03 01:12:09;;;;;;;17.30;14.10;;;;;;100798.21;;;;107045;1276;64731;-32
2022/03/03 01:14:37;;;;;;;18.80;14.20;;;;;;100795.30;;;;107085;1277;64873;-32
2022/03/03 01:17:04;;;;;;;17.90;14.20;;;;;;100796.57;;;;107007;1277;67090;-45
2022/03/03 01:19:32;;;;;;;17.10;13.40;;;;;;100798.56;;;;107052;1277;64981;-45
2022/03/03 01:21:59;;;;;;;17.90;13.30;;;;;;100797.86;;;;107083;1276;64716;-33
2022/03/03 01:24:27;;;;;;;16.80;13.10;;;;;;100798.39;;;;107057;1278;64898;-33
2022/03/03 01:26:55;;;;;;;18.70;14.10;;;;;;100797.17;;;;107068;1276;64783;-43
2022/03/03 01:29:22;;;;;;;17.80;14.10;;;;;;100796.23;;;;107083;1276;65205;-45
2022/03/03 01:31:49;;;;;;;20.20;14.70;;;;;;100798.48;;;;107064;1276;64758;-32
2022/03/03 01:34:16;;;;;;;18.20;13.80;;;;;;100796.94;;;;106999;1278;64754;-33
2022/03/03 01:36:44;;;;;;;16.40;13.90;;;;;;100792.02;;;;106979;1278;64777;-45
2022/03/03 01:39:11;;;;;;;18.40;14.00;;;;;;100788.44;;;;107094;1277;64866;-44
2022/03/03 01:41:40;;;;;;;18.20;13.90;;;;;;100782.90;;;;107054;1277;65879;-44
2022/03/03 01:44:09;;;;;;;18.40;14.50;;;;;;100780.16;;;;107086;1277;65577;-44
2022/03/03 01:46:47;;;;;;;18.30;13.70;;;;;;100780.21;;;;107103;1276;64885;-44
2022/03/03 01:49:14;;;;;;;18.60;14.40;;;;;;100782.83;;;;107089;1277;64861;-44
2022/03/03 01:51:41;;;;;;;17.10;14.30;;;;;;100780.95;;;;107092;1276;64775;-33
2022/03/03 01:54:09;;;;;;;19.00;14.20;;;;;;100777.96;;;;107085;1276;66653;-33
2022/03/03 01:56:37;;;;;;;18.90;14.30;;;;;;100778.46;;;;107058;1276;64844;-33
2022/03/03 01:59:04;;;;;;;17.70;13.60;;;;;;100784.52;;;;107074;1276;64866;-37
2022/03/03 02:01:32;;;;;;;18.50;14.30;;;;;;100777.45;;;;107082;1277;64789;-32
2022/03/03 02:03:59;;;;;;;17.80;14.50;;;;;;100775.31;;;;107125;1277;65310;-33
2022/03/03 02:06:26;;;;;;;18.70;14.20;;;;;;100767.56;;;;107072;1277;65346;-33
2022/03/03 02:08:54;;;;;;;18.90;14.60;;;;;;100770.22;;;;106996;1276;64918;-33
2022/03/03 02:11:21;;;;;;;19.00;14.20;;;;;;100764.70;;;;107084;1276;64867;-33
2022/03/03 02:13:48;;;;;;;19.10;13.50;;;;;;100760.88;;;;107062;1276;64774;-31
2022/03/03 02:16:16;;;;;;;18.40;14.60;;;;;;100760.04;;;;107101;1276;64847;-32
2022/03/03 02:18:44;;;;;;;16.80;13.40;;;;;;100760.64;;;;107111;1276;64812;-33
2022/03/03 02:21:16;;;;;;;17.60;13.20;;;;;;100764.06;;;;107053;1277;64867;-32
2022/03/03 02:23:44;;;;;;;19.90;14.60;;;;;;100763.52;;;;107034;1277;64814;-33
2022/03/03 02:26:22;;;;;;;19.40;14.60;;;;;;100761.02;;;;107075;1276;62261;-37
2022/03/03 02:28:52;;;;;;;17.80;12.90;;;;;;100760.52;;;;107107;1277;64715;-33
2022/03/03 02:31:20;;;;;;;20.30;14.60;;;;;;100754.72;;;;107082;1276;67573;-44
2022/03/03 02:33:47;;;;;;;17.10;13.50;;;;;;100756.98;;;;107081;1275;64785;-50
2022/03/03 02:36:20;;;;;;;18.40;13.30;;;;;;100750.94;;;;107010;1276;64986;-44
2022/03/03 02:38:50;;;;;;;19.40;14.70;;;;;;100750.21;;;;107051;1278;64765;-43
2022/03/03 02:41:18;;;;;;;16.80;13.50;;;;;;100748.98;;;;107110;1276;64994;-33
2022/03/03 02:43:46;;;;;;;17.20;14.00;;;;;;100747.64;;;;107072;1276;64912;-33
2022/03/03 02:46:14;;;;;;;19.00;14.20;;;;;;100749.43;;;;106977;1277;65633;-33
2022/03/03 02:48:42;;;;;;;18.90;14.00;;;;;;100743.71;;;;107095;1276;64761;-33
2022/03/03 02:51:10;;;;;;;18.90;14.00;;;;;;100744.45;;;;107032;1278;66081;-45
2022/03/03 02:53:37;;;;;;;17.90;14.50;;;;;;100742.50;;;;107078;1276;64773;-43
2022/03/03 02:56:06;;;;;;;21.10;15.00;;;;;;100737.56;;;;107022;1276;67666;-33
2022/03/03 02:58:34;;;;;;;18.50;15.00;;;;;;100732.63;;;;106941;1276;64889;-33
2022/03/03 03:01:05;;;;;;;17.80;14.50;;;;;;100729.02;;;;106954;1278;64860;-53
2022/03/03 03:03:33;;;;;;;17.80;14.80;;;;;;100726.23;;;;107094;1276;64848;-46
2022/03/03 03:06:01;;;;;;;20.20;15.80;;;;;;100725.77;;;;106913;1277;64689;-45
2022/03/03 03:08:28;;;;;;;20.70;15.90;;;;;;100725.34;;;;107063;1276;64971;-46
2022/03/03 03:10:56;;;;;;;19.70;14.90;;;;;;100723.53;;;;107039;1276;64625;-32
2022/03/03 03:13:23;;;;;;;20.30;15.50;;;;;;100716.42;;;;107099;1276;64748;-33
2022/03/03 03:15:51;;;;;;;19.40;14.80;;;;;;100717.55;;;;107070;1276;64779;-32
2022/03/03 03:18:20;;;;;;;20.70;15.10;;;;;;100717.80;;;;107008;1277;64762;-33
2022/03/03 03:20:51;;;;;;;20.40;14.80;;;;;;100714.16;;;;107097;1276;65948;-33
2022/03/03 03:23:21;;;;;;;20.60;15.20;;;;;;100711.88;;;;107035;1276;64873;-33
2022/03/03 03:25:49;;;;;;;19.90;15.00;;;;;;100706.71;;;;107081;1276;64860;-45
2022/03/03 03:28:18;;;;;;;20.20;16.00;;;;;;100703.98;;;;107064;1276;64715;-44
2022/03/03 03:30:46;;;;;;;18.30;14.80;;;;;;100703.45;;;;107050;1277;64813;-33
2022/03/03 03:33:14;;;;;;;22.40;16.50;;;;;;100704.85;;;;107080;1276;66116;-32
2022/03/03 03:35:41;;;;;;;20.10;15.50;;;;;;100705.58;;;;107083;1276;64763;-32
2022/03/03 03:38:09;;;;;;;18.40;15.70;;;;;;100703.92;;;;107059;1276;64777;-33
2022/03/03 03:40:36;;;;;;;21.40;15.50;;;;;;100701.33;;;;107077;1277;64824;-34
2022/03/03 03:43:04;;;;;;;19.10;15.30;;;;;;100699.25;;;;107115;1276;64899;-33
2022/03/03 03:45:31;;;;;;;19.50;15.40;;;;;;100699.69;;;;107071;1276;66114;-33
2022/03/03 03:47:58;;;;;;;19.70;15.10;;;;;;100699.47;;;;107100;1276;64803;-32
2022/03/03 03:50:26;;;;;;;19.40;15.00;;;;;;100691.02;;;;106975;1278;64768;-33
2022/03/03 03:52:54;;;;;;;19.00;15.70;;;;;;100689.58;;;;107056;1276;64875;-34
2022/03/03 03:55:21;;;;;;;19.20;15.70;;;;;;100684.39;;;;107090;1276;64751;-48
2022/03/03 03:57:48;;;;;;;20.20;15.70;;;;;;100673.61;;;;107075;1276;66624;-44
2022/03/03 04:00:17;;;;;;;18.80;15.20;;;;;;100671.10;;;;107038;1276;64755;-46
2022/03/03 04:02:46;;;;;;;21.10;14.90;;;;;;100670.34;;;;107097;1276;64865;-44
2022/03/03 04:05:13;;;;;;;18.60;14.20;;;;;;100674.52;;;;107041;1277;64890;-43
2022/03/03 04:07:41;;;;;;;19.20;15.30;;;;;;100676.84;;;;107098;1276;64945;-43
2022/03/03 04:10:11;;;;;;;20.30;15.20;;;;;;100674.96;;;;107073;1276;66154;-43
2022/03/03 04:12:40;;;;;;;20.00;15.00;;;;;;100671.89;;;;107106;1276;64880;-45
2022/03/03 04:15:09;;;;;;;19.30;15.10;;;;;;100666.72;;;;107099;1276;64852;-44
2022/03/03 04:17:37;;;;;;;20.20;15.40;;;;;;100665.36;;;;106955;1277;64849;-43
2022/03/03 04:20:06;;;;;;;21.20;16.10;;;;;;100666.02;;;;107100;1276;64997;-32
2022/03/03 04:22:34;;;;;;;20.10;15.30;;;;;;100664.71;;;;107094;1276;66371;-33
2022/03/03 04:25:03;;;;;;;21.80;15.50;;;;;;100664.82;;;;106913;1276;265450;-33
2022/03/03 04:27:30;;;;;;;21.40;16.10;;;;;;100664.42;;;;106964;1276;64859;-34
2022/03/03 04:29:58;;;;;;;19.70;14.90;;;;;;100661.77;;;;107076;1276;64843;-43
2022/03/03 04:32:26;;;;;;;20.10;14.90;;;;;;100665.11;;;;106971;1277;64615;-43
2022/03/03 04:34:54;;;;;;;19.20;16.30;;;;;;100668.02;;;;107105;1276;65976;-36
2022/03/03 04:37:21;;;;;;;21.60;15.90;;;;;;100669.36;;;;107034;1276;64713;-33
2022/03/03 04:39:49;;;;;;;20.80;15.80;;;;;;100671.23;;;;107003;1276;64892;-32
2022/03/03 04:42:16;;;;;;;19.70;16.10;;;;;;100669.13;;;;106946;1278;64901;-44
2022/03/03 04:44:43;;;;;;;21.10;16.00;;;;;;100667.92;;;;107061;1276;64898;-43
2022/03/03 04:47:11;;;;;;;19.60;15.20;;;;;;100666.43;;;;107064;1276;65950;-32
2022/03/03 04:49:39;;;;;;;21.00;16.30;;;;;;100665.03;;;;107075;1276;64860;-32
2022/03/03 04:52:06;;;;;;;21.80;17.00;;;;;;100663.30;;;;107078;1276;64744;-44
2022/03/03 04:54:34;;;;;;;20.00;15.10;;;;;;100663.05;;;;106983;1278;66006;-43
2022/03/03 04:57:02;;;;;;;22.10;15.80;;;;;;100661.21;;;;107096;1276;64812;-33
2022/03/03 04:59:29;;;;;;;20.90;15.60;;;;;;100657.83;;;;106960;1276;66400;-32
2022/03/03 05:01:57;;;;;;;20.40;15.70;;;;;;100659.67;;;;107071;1276;64820;-43
2022/03/03 05:04:25;;;;;;;21.50;15.90;;;;;;100653.80;;;;107004;1277;64744;-44
2022/03/03 05:06:52;;;;;;;21.30;15.60;;;;;;100652.02;;;;107071;1276;64974;-44
2022/03/03 05:09:20;;;;;;;19.50;14.90;;;;;;100649.61;;;;106962;1277;64747;-45
2022/03/03 05:11:47;;;;;;;21.30;15.80;;;;;;100645.84;;;;107062;1276;66261;-50
2022/03/03 05:14:15;;;;;;;19.70;15.50;;;;;;100640.33;;;;107066;1276;64857;-45
2022/03/03 05:16:42;;;;;;;20.60;15.70;;;;;;100641.64;;;;107100;1276;64713;-49
2022/03/03 05:19:09;;;;;;;20.40;15.90;;;;;;100644.38;;;;106982;1276;64921;-45
2022/03/03 05:21:37;;;;;;;18.50;14.70;;;;;;100644.84;;;;107088;1276;64807;-33
2022/03/03 05:24:05;;;;;;;20.60;15.00;;;;;;100639.61;;;;107083;1276;65836;-34
2022/03/03 05:26:33;;;;;;;19.20;15.40;;;;;;100640.89;;;;107031;1277;64766;-32
2022/03/03 05:29:03;;;;;;;18.30;15.00;;;;;;100643.44;;;;107071;1276;64932;-33
2022/03/03 05:31:30;;;;;;;18.50;15.10;;;;;;100642.45;;;;107080;1276;64862;-32
2022/03/03 05:33:57;;;;;;;19.10;14.90;;;;;;100639.36;;;;107097;1276;64825;-33
2022/03/03 05:36:26;;;;;;;20.00;15.10;;;;;;100638.81;;;;107097;1276;66465;-33
2022/03/03 05:38:56;;;;;;;19.70;15.20;;;;;;100635.09;;;;107108;1276;64721;-33
2022/03/03 05:41:24;;;;;;;20.90;15.40;;;;;;100636.92;;;;107080;1276;63869;-33
2022/03/03 05:43:51;;;;;;;19.30;15.10;;;;;;100640.90;;;;106992;1276;64898;-34
2022/03/03 05:46:19;;;;;;;20.70;15.60;;;;;;100635.16;;;;107088;1276;64997;-32
2022/03/03 05:48:48;;;;;;;18.60;14.80;;;;;;100635.09;;;;107084;1276;66155;-35
2022/03/03 05:51:19;;;;;;;19.90;15.50;;;;;;100632.55;;;;107014;1276;64649;-33
2022/03/03 05:53:47;;;;;;;19.60;15.50;;;;;;100636.77;;;;106992;1277;64730;-33
2022/03/03 05:56:17;;;;;;;17.30;14.40;;;;;;100636.42;;;;106989;1276;64918;-43
2022/03/03 05:58:47;;;;;;;20.40;15.70;;;;;;100629.46;;;;106983;1277;64830;-43
2022/03/03 06:01:16;;;;;;;18.90;14.50;;;;;;100625.95;;;;107049;1277;66482;-44
2022/03/03 06:03:47;;;;;;;21.70;15.60;;;;;;100623.48;;;;107103;1276;64699;-46
2022/03/03 06:06:22;;;;;;;17.90;14.30;;;;;;100625.45;;;;107101;1276;64787;-45
2022/03/03 06:09:23;;;;;;;19.30;15.20;;;;;;100622.83;;;;107095;1276;64740;-45
2022/03/03 06:12:30;;;;;;;19.60;15.00;;;;;;100623.89;;;;107008;1276;64899;-34
2022/03/03 06:15:05;;;;;;;18.80;15.40;;;;;;100625.77;;;;106957;1276;67209;-44
2022/03/03 06:17:34;;;;;;;19.40;14.70;;;;;;100626.28;;;;107010;1276;64746;-33
2022/03/03 06:20:04;;;;;;;19.80;15.70;;;;;;100632.67;;;;107117;1276;64896;-44
2022/03/03 06:22:31;;;;;;;20.40;14.70;;;;;;100634.65;;;;107077;1276;64908;-43
2022/03/03 06:24:59;;;;;;;19.00;14.30;;;;;;100634.43;;;;107053;1277;64865;-33
2022/03/03 06:27:29;;;;;;;20.50;14.80;;;;;;100634.14;;;;107061;1276;66249;-32
2022/03/03 06:29:56;;;;;;;20.20;15.20;;;;;;100636.11;;;;106927;1278;64882;-42
2022/03/03 06:32:24;;;;;;;19.40;15.10;;;;;;100637.95;;;;106920;1276;64919;-44
2022/03/03 06:34:51;;;;;;;21.50;14.80;;;;;;100639.85;;;;107078;1276;64859;-44
2022/03/03 06:37:19;;;;;;;21.70;15.20;;;;;;100641.02;;;;107096;1276;64757;-45
2022/03/03 06:39:46;;;;;;;18.50;14.40;;;;;;100639.63;;;;107123;1276;66550;-42
2022/03/03 06:42:13;;;;;;;20.10;15.10;;;;;;100638.90;;;;107064;1276;64618;-43
2022/03/03 06:44:40;;;;;;;19.70;16.40;;;;;;100637.55;;;;107089;1276;64806;-44
2022/03/03 06:47:07;;;;;;;18.60;15.00;;;;;;100636.44;;;;107065;1276;64842;-43
2022/03/03 06:49:35;;;;;;;18.20;14.30;;;;;;100636.42;;;;107116;1276;64719;-45
2022/03/03 06:52:07;;;;;;;18.00;15.10;;;;;;100636.85;;;;107067;1277;64694;-32
2022/03/03 06:54:34;;;;;;;21.20;14.90;;;;;;100633.60;;;;107029;1276;64856;-32
2022/03/03 06:57:04;;;;;;;19.10;15.50;;;;;;100628.25;;;;107059;1276;64858;-33
2022/03/03 06:59:33;;;;;;;19.80;15.00;;;;;;100627.49;;;;106959;1276;64842;-33
2022/03/03 07:02:02;;;;;;;22.00;15.80;;;;;;100631.91;;;;106968;1276;64755;-43
2022/03/03 07:04:32;;;;;;;21.40;16.80;;;;;;100639.09;;;;107089;1276;66395;-44
2022/03/03 07:07:00;;;;;;;21.20;15.70;;;;;;100638.71;;;;107086;1276;64792;-41
2022/03/03 07:09:30;;;;;;;20.40;16.10;;;;;;100639.39;;;;107098;1276;64892;-42
2022/03/03 07:12:00;;;;;;;19.90;16.20;;;;;;100645.98;;;;107105;1276;64725;-43
2022/03/03 07:14:28;;;;;;;20.00;16.30;;;;;;100646.52;;;;107042;1276;64982;-41
2022/03/03 07:17:12;;;;;;;21.80;16.70;;;;;;100644.83;;;;107041;1277;66134;-50
2022/03/03 07:19:50;;;;;;;22.40;17.60;;;;;;100637.42;;;;107107;1276;64890;-43
2022/03/03 07:22:34;;;;;;;21.30;17.50;;;;;;100633.11;;;;107110;1276;65011;-43
2022/03/03 07:25:06;;;;;;;23.70;18.20;;;;;;100629.07;;;;107066;1276;64889;-33
2022/03/03 07:27:38;;;;;;;22.20;18.30;;;;;;100635.70;;;;107097;1276;64764;-37
2022/03/03 07:30:09;;;;;;;22.60;17.90;;;;;;100641.77;;;;107090;1276;66508;-43
2022/03/03 07:32:47;;;;;;;21.90;16.90;;;;;;100643.34;;;;107014;1276;64882;-43
2022/03/03 07:35:15;;;;;;;22.10;17.50;;;;;;100638.23;;;;107115;1276;64755;-46
2022/03/03 07:37:50;;;;;;;22.90;17.70;;;;;;100631.26;;;;107046;1277;64881;-43
2022/03/03 07:40:17;;;;;;;23.50;19.20;;;;;;100642.84;;;;107130;1276;64860;-32
2022/03/03 07:42:45;;;;;;;23.50;18.00;;;;;;100646.73;;;;107104;1276;65168;-34
2022/03/03 07:45:12;;;;;;;23.60;18.50;;;;;;100637.20;;;;106932;1277;64796;-43
2022/03/03 07:47:40;;;;;;;22.20;19.00;;;;;;100636.75;;;;107107;1276;65013;-43
2022/03/03 07:50:08;;;;;;;23.60;18.60;;;;;;100633.81;;;;107121;1276;64728;-43
2022/03/03 07:52:36;;;;;;;23.00;18.20;;;;;;100632.99;;;;107052;1277;64750;-43
2022/03/03 07:55:06;;;;;;;22.50;18.10;;;;;;100631.55;;;;107075;1276;66537;-33
2022/03/03 07:57:39;;;;;;;24.50;19.80;;;;;;100634.42;;;;107012;1276;64906;-33
2022/03/03 08:00:10;;;;;;;27.10;19.50;;;;;;100637.23;;;;107138;1276;64847;-42
2022/03/03 08:02:44;;;;;;;23.40;18.90;;;;;;100631.79;;;;107032;1276;64850;-44
2022/03/03 08:05:12;;;;;;;24.50;19.10;;;;;;100629.45;;;;106971;1276;64758;-33
2022/03/03 08:07:45;;;;;;;24.20;19.80;;;;;;100623.14;;;;107053;1276;65904;-36
2022/03/03 08:10:14;;;;;;;;;;;;;;100620.15;;;;107123;1276;64771;-42
2022/03/03 08:12:43;;;;;;;26.00;20.20;;;;;;100621.36;;;;107117;1276;64808;-44
2022/03/03 08:15:12;;;;;;;24.40;19.70;;;;;;100617.82;;;;107109;1276;64757;-43
2022/03/03 08:17:40;;;;;;;24.20;20.30;;;;;;100617.36;;;;107063;1276;64950;-43
2022/03/03 08:20:08;;;;;;;27.10;21.10;;;;;;100615.59;;;;107047;1276;66168;-32
2022/03/03 08:22:38;;;;;;;26.40;22.00;;;;;;100620.59;;;;107036;1276;64912;-33
2022/03/03 08:25:08;;;;;;;27.30;21.10;;;;;;100610.90;;;;106962;1276;64750;-43
2022/03/03 08:27:37;;;;;;;26.30;21.50;;;;;;100608.83;;;;107007;1276;64870;-43
2022/03/03 08:30:10;;;;;;;25.90;20.90;;;;;;100605.17;;;;107142;1276;64727;-33
2022/03/03 08:32:44;;;;;;;;;;;;;;100604.96;;;;106953;1278;65082;-31
2022/03/03 08:35:18;;;;;;;;;;;;;;100605.98;;;;107006;1276;64803;-43
2022/03/03 08:38:39;;;;;;;25.60;20.90;;;;;;100603.84;;;;107048;1276;64860;-43
2022/03/03 08:41:07;;;;;;;26.10;20.90;;;;;;100601.92;;;;106893;1276;64979;-42
2022/03/03 08:43:39;;;;;;;25.80;21.00;;;;;;100603.14;;;;107128;1276;64749;-43
2022/03/03 08:46:07;;;;;;;26.30;22.00;;;;;;100601.14;;;;107133;1276;64852;-33
2022/03/03 08:48:35;;;;;;;25.90;21.30;;;;;;100605.20;;;;107031;1276;64871;-33
2022/03/03 08:51:04;;;;;;;26.50;21.50;;;;;;100599.04;;;;106887;1277;64763;-33
2022/03/03 08:53:31;;;;;;;25.40;20.70;;;;;;100598.28;;;;107115;1276;64751;-32
2022/03/03 08:56:02;;;;;;;26.30;20.90;;;;;;100597.00;;;;107030;1276;64740;-32
2022/03/03 08:58:33;;;;;;;25.50;21.50;;;;;;100596.29;;;;107099;1276;64930;-32
2022/03/03 09:01:00;;;;;;;26.40;21.60;;;;;;100591.58;;;;106968;1276;64862;-32
2022/03/03 09:03:27;;;;;;;28.40;21.80;;;;;;100591.60;;;;107085;1276;64734;-33
2022/03/03 09:05:56;;;;;;;24.80;19.90;;;;;;100591.08;;;;107098;1276;64945;-44
2022/03/03 09:08:24;;;;;;;28.90;22.00;;;;;;100590.44;;;;107133;1276;64724;-43
2022/03/03 09:10:52;;;;;;;27.20;21.70;;;;;;100596.41;;;;107094;1276;64844;-42
2022/03/03 09:13:19;;;;;;;29.30;22.20;;;;;;100599.23;;;;107104;1276;64716;-42
2022/03/03 09:15:46;;;;;;;28.80;22.30;;;;;;100596.55;;;;107081;1276;64870;-36
2022/03/03 09:18:13;;;;;;;24.60;21.00;;;;;;100597.05;;;;107080;1276;65105;-34
2022/03/03 09:20:41;;;;;;;26.40;21.50;;;;;;100601.99;;;;107056;1278;64789;-42
2022/03/03 09:23:08;;;;;;;27.30;20.60;;;;;;100594.28;;;;106974;1275;65257;-42
2022/03/03 09:25:36;;;;;;;28.20;21.40;;;;;;100595.30;;;;107144;1276;64989;-42
2022/03/03 09:28:05;;;;;;;31.10;21.70;;;;;;100594.51;;;;107061;1276;64775;-41
2022/03/03 09:30:33;;;;;;;24.60;21.20;;;;;;100589.05;;;;107143;1276;64803;-33
2022/03/03 09:33:01;;;;;;;27.50;20.70;;;;;;100590.22;;;;107109;1276;64813;-34
2022/03/03 09:35:28;;;;;;;25.80;20.40;;;;;;100590.55;;;;107124;1276;66096;-32
2022/03/03 09:37:55;;;;;;;28.00;21.10;;;;;;100591.98;;;;107084;1276;64888;-33
2022/03/03 09:40:23;;;;;;;24.90;21.00;;;;;;100587.62;;;;107099;1276;64813;-38
2022/03/03 09:43:06;;;;;;;24.40;20.40;;;;;;100582.00;;;;107103;1276;64775;-46
2022/03/03 09:45:36;;;;;;;26.00;20.10;;;;;;100580.08;;;;107051;1278;64894;-41
2022/03/03 09:48:09;;;;;;;24.30;19.90;;;;;;100583.69;;;;107040;1277;65064;-40
2022/03/03 09:50:39;;;;;;;27.20;20.20;;;;;;100580.61;;;;107014;1278;64740;-39
2022/03/03 09:53:08;;;;;;;25.40;19.90;;;;;;100581.23;;;;107030;1277;64899;-45
2022/03/03 09:55:37;;;;;;;24.40;20.30;;;;;;100581.40;;;;107017;1277;64700;-33
2022/03/03 09:58:08;;;;;;;24.20;20.30;;;;;;100585.37;;;;107050;1276;64904;-33
2022/03/03 10:00:40;;;;;;;25.80;19.60;;;;;;100583.16;;;;107105;1276;66578;-32
2022/03/03 10:03:16;;;;;;;24.50;19.60;;;;;;100580.34;;;;107104;1276;64783;-33
2022/03/03 10:05:52;;;;;;;28.20;20.70;;;;;;100575.16;;;;107006;1277;65586;-42
2022/03/03 10:08:23;;;;;;;27.10;21.30;;;;;;100575.58;;;;107018;1276;64901;-38
2022/03/03 10:11:00;;;;;;;26.00;20.20;;;;;;100574.35;;;;107147;1276;64893;-35
2022/03/03 10:13:51;;;;;;;25.30;20.90;;;;;;100574.33;;;;107126;1276;66159;-50
2022/03/03 10:16:29;;;;;;;25.70;20.00;;;;;;100580.81;;;;107098;1276;64764;-32
2022/03/03 10:19:04;;;;;;;22.50;19.40;;;;;;100577.50;;;;107114;1276;64783;-34
2022/03/03 10:21:35;;;;;;;23.00;18.20;;;;;;100571.88;;;;107066;1276;64872;-41
2022/03/03 10:24:24;;;;;;;23.80;18.90;;;;;;100566.05;;;;107125;1276;64886;-37
2022/03/03 10:27:06;;;;;;;26.90;21.10;;;;;;100568.62;;;;107115;1276;67235;-38
2022/03/03 10:29:35;;;;;;;25.10;20.50;;;;;;100577.04;;;;107080;1276;64784;-41
2022/03/03 10:32:03;;;;;;;22.80;18.40;;;;;;100579.63;;;;107077;1276;65462;-52
2022/03/03 10:34:34;;;;;;;23.60;19.20;;;;;;100581.27;;;;106970;1279;64859;-38
2022/03/03 10:37:08;;;;;;;22.70;18.80;;;;;;100582.71;;;;107115;1276;64751;-33
2022/03/03 10:39:48;;;;;;;22.70;18.20;;;;;;100583.81;;;;107172;1274;67362;-35
2022/03/03 10:42:24;;;;;;;23.00;18.10;;;;;;100581.35;;;;107085;1276;64907;-33
2022/03/03 10:45:11;;;;;;;22.80;18.30;;;;;;100577.75;;;;107025;1276;64736;-33
2022/03/03 10:47:58;;;;;;;20.20;16.70;;;;;;100578.98;;;;107001;1276;64888;-34
2022/03/03 10:50:25;;;;;;;19.60;16.20;;;;;;100571.95;;;;107099;1276;64851;-35
2022/03/03 10:52:53;;;;;;;19.20;16.50;;;;;;100563.94;;;;107103;1276;66233;-36
2022/03/03 10:55:20;;;;;;;21.60;17.60;;;;;;100560.14;;;;106952;1276;64797;-33
2022/03/03 10:57:58;;;;;;;20.00;17.30;;;;;;100570.64;;;;107085;1276;64751;-33
2022/03/03 11:00:31;;;;;;;22.80;19.10;;;;;;100570.73;;;;107093;1276;64726;-33
2022/03/03 11:03:01;;;;;;;20.60;17.10;;;;;;100574.36;;;;107132;1276;64764;-32
2022/03/03 11:05:30;;;;;;;20.90;16.50;;;;;;100573.92;;;;107118;1276;67198;-49
2022/03/03 11:07:58;;;;;;;20.40;15.70;;;;;;100574.08;;;;107125;1275;64865;-47
2022/03/03 11:10:29;;;;;;;20.10;17.00;;;;;;100557.78;;;;107104;1276;64886;-46
2022/03/03 11:12:57;;;;;;;20.70;17.40;;;;;;100567.14;;;;107128;1276;64753;-45
2022/03/03 11:15:28;;;;;;;20.00;17.40;;;;;;100566.33;;;;107166;1276;65135;-34
2022/03/03 11:17:55;;;;;;;21.50;16.40;;;;;;100570.73;;;;107021;1276;66593;-31
2022/03/03 11:20:23;;;;;;;21.70;18.20;;;;;;100575.70;;;;107091;1276;64727;-33
2022/03/03 11:22:56;;;;;;;23.60;19.50;;;;;;100578.45;;;;107100;1276;64786;-34
2022/03/03 11:25:35;;;;;;;18.30;15.50;;;;;;100577.88;;;;107101;1276;64865;-40
2022/03/03 11:28:09;;;;;;;21.70;15.40;;;;;;100572.22;;;;107103;1276;64850;-33
2022/03/03 11:30:36;;;;;;;;;;;;;;100568.70;;;;107005;1276;67227;-39
2022/03/03 11:33:30;;;;;;;22.00;18.20;;;;;;100572.10;;;;107112;1276;65169;-36
2022/03/03 11:36:04;;;;;;;19.20;16.20;;;;;;100572.54;;;;107094;1276;64937;-36
2022/03/03 11:38:54;;;;;;;21.80;18.10;;;;;;100572.85;;;;106991;1278;64935;-34
2022/03/03 11:41:46;;;;;;;21.50;17.60;;;;;;100578.41;;;;107114;1276;64890;-37
2022/03/03 11:44:17;;;;;;;21.60;17.00;;;;;;100584.17;;;;107009;1277;67725;-37
2022/03/03 11:46:49;;;;;;;21.40;17.50;;;;;;100574.70;;;;107043;1276;64860;-34
2022/03/03 11:49:29;;;;;;;20.10;16.10;;;;;;100574.69;;;;107040;1276;64769;-35
2022/03/03 11:52:08;;;;;;;22.50;19.10;;;;;;100572.07;;;;107096;1276;64889;-42
2022/03/03 11:54:36;;;;;;;24.10;20.60;;;;;;100574.69;;;;107130;1276;64830;-44
2022/03/03 11:57:03;;;;;;;18.60;15.30;;;;;;100581.02;;;;107041;1276;66517;-44
2022/03/03 11:59:41;;;;;;;21.00;18.60;;;;;;100579.22;;;;107117;1276;64772;-40
2022/03/03 12:02:09;;;;;;;24.10;18.90;;;;;;100575.27;;;;107103;1276;64744;-44
2022/03/03 12:04:38;;;;;;;20.70;17.50;;;;;;100570.98;;;;107134;1276;64740;-43
2022/03/03 12:07:28;;;;;;;21.90;18.80;;;;;;100568.06;;;;107178;1276;64739;-38
2022/03/03 12:09:56;;;;;;;19.90;16.20;;;;;;100573.42;;;;107124;1276;65924;-34
2022/03/03 12:12:28;;;;;;;23.90;18.70;;;;;;100577.93;;;;107146;1276;64872;-34
2022/03/03 12:14:59;;;;;;;18.70;16.10;;;;;;100579.56;;;;107029;1276;64777;-45
2022/03/03 12:17:46;;;;;;;18.30;15.60;;;;;;100567.15;;;;107117;1276;64866;-43
2022/03/03 12:20:40;;;;;;;19.90;16.10;;;;;;100569.03;;;;107144;1276;64876;-56
2022/03/03 12:23:16;;;;;;;21.40;18.20;;;;;;100574.02;;;;107197;1276;67397;-56
2022/03/03 12:25:54;;;;;;;18.90;16.30;;;;;;100578.77;;;;106894;1275;321672;-56
2022/03/03 12:28:47;;;;;;;20.70;15.10;;;;;;100572.03;;;;107186;1276;64849;-55
2022/03/03 12:31:25;;;;;;;19.70;17.20;;;;;;100565.77;;;;107031;1277;64847;-56
2022/03/03 12:34:08;;;;;;;16.90;15.00;;;;;;100578.89;;;;107132;1276;64840;-57
2022/03/03 12:36:44;;;;;;;16.80;14.90;;;;;;100568.28;;;;107030;1279;67682;-34
2022/03/03 12:39:16;;;;;;;17.70;15.00;;;;;;100567.88;;;;107046;1277;64915;-33
2022/03/03 12:41:44;;;;;;;19.10;16.40;;;;;;100569.38;;;;107038;1279;64773;-33
2022/03/03 12:44:17;;;;;;;15.60;13.70;;;;;;100574.05;;;;107036;1279;64861;-32